sensor_id;sensor_type;location;lat;lon;timestamp;pressure;altitude;pressure_sealevel;temperature;humidity
2685;BME280;1352;48.446;9.156;2022-11-15T00:00:35;95099.81;;;12.85;74.40
2685;BME280;1352;48.446;9.156;2022-11-15T00:03:02;95099.31;;;12.81;75.17
2685;BME280;1352;48.446;9.156;2022-11-15T00:05:34;95096.72;;;12.89;75.16
2685;BME280;1352;48.446;9.156;2022-11-15T00:08:01;95086.16;;;12.99;74.90
2685;BME280;1352;48.446;9.156;2022-11-15T00:10:28;95087.75;;;12.92;75.28
2685;BME280;1352;48.446;9.156;2022-11-15T00:12:55;95082.19;;;12.95;75.37
2685;BME280;1352;48.446;9.156;2022-11-15T00:15:23;95083.00;;;12.95;75.51
2685;BME280;1352;48.446;9.156;2022-11-15T00:17:50;95079.28;;;12.98;75.33
2685;BME280;1352;48.446;9.156;2022-11-15T00:20:17;95080.91;;;12.99;75.32
2685;BME280;1352;48.446;9.156;2022-11-15T00:22:46;95078.00;;;13.02;75.45
2685;BME280;1352;48.446;9.156;2022-11-15T00:25:13;95082.03;;;12.96;76.02
2685;BME280;1352;48.446;9.156;2022-11-15T00:27:43;95072.69;;;12.94;76.19
2685;BME280;1352;48.446;9.156;2022-11-15T00:30:11;95076.94;;;12.95;76.64
2685;BME280;1352;48.446;9.156;2022-11-15T00:32:38;95074.19;;;12.96;76.66
2685;BME280;1352;48.446;9.156;2022-11-15T00:35:06;95073.06;;;12.99;76.62
2685;BME280;1352;48.446;9.156;2022-11-15T00:37:36;95072.22;;;12.98;77.33
2685;BME280;1352;48.446;9.156;2022-11-15T00:40:06;95063.84;;;12.95;77.29
2685;BME280;1352;48.446;9.156;2022-11-15T00:42:35;95061.09;;;12.96;77.34
2685;BME280;1352;48.446;9.156;2022-11-15T00:45:03;95061.91;;;12.97;77.71
2685;BME280;1352;48.446;9.156;2022-11-15T00:47:30;95063.06;;;13.02;77.95
2685;BME280;1352;48.446;9.156;2022-11-15T00:50:00;95069.31;;;13.01;76.59
2685;BME280;1352;48.446;9.156;2022-11-15T00:52:27;95058.94;;;12.92;77.10
2685;BME280;1352;48.446;9.156;2022-11-15T00:54:54;95062.81;;;12.80;77.50
2685;BME280;1352;48.446;9.156;2022-11-15T00:57:22;95061.41;;;12.67;77.71
2685;BME280;1352;48.446;9.156;2022-11-15T00:59:49;95056.91;;;12.52;78.10
2685;BME280;1352;48.446;9.156;2022-11-15T01:02:16;95056.16;;;12.34;79.73
2685;BME280;1352;48.446;9.156;2022-11-15T01:04:46;95049.34;;;12.23;80.43
2685;BME280;1352;48.446;9.156;2022-11-15T01:07:13;95052.81;;;12.06;81.90
2685;BME280;1352;48.446;9.156;2022-11-15T01:09:40;95048.59;;;11.87;83.13
2685;BME280;1352;48.446;9.156;2022-11-15T01:12:07;95046.47;;;11.90;83.55
2685;BME280;1352;48.446;9.156;2022-11-15T01:14:36;95046.31;;;11.74;83.87
2685;BME280;1352;48.446;9.156;2022-11-15T01:17:03;95046.44;;;11.73;84.24
2685;BME280;1352;48.446;9.156;2022-11-15T01:19:30;95044.88;;;11.62;84.99
2685;BME280;1352;48.446;9.156;2022-11-15T01:21:57;95045.19;;;11.59;85.03
2685;BME280;1352;48.446;9.156;2022-11-15T01:24:24;95042.19;;;11.54;85.32
2685;BME280;1352;48.446;9.156;2022-11-15T01:26:51;95046.59;;;11.53;85.71
2685;BME280;1352;48.446;9.156;2022-11-15T01:29:18;95040.19;;;11.48;86.04
2685;BME280;1352;48.446;9.156;2022-11-15T01:31:47;95037.50;;;11.40;86.23
2685;BME280;1352;48.446;9.156;2022-11-15T01:34:14;95036.66;;;11.39;86.82
2685;BME280;1352;48.446;9.156;2022-11-15T01:36:41;95031.72;;;11.36;87.06
2685;BME280;1352;48.446;9.156;2022-11-15T01:39:08;95030.47;;;11.40;87.00
2685;BME280;1352;48.446;9.156;2022-11-15T01:41:35;95029.94;;;11.37;87.32
2685;BME280;1352;48.446;9.156;2022-11-15T01:44:42;95034.84;;;11.22;86.74
2685;BME280;1352;48.446;9.156;2022-11-15T01:47:13;95026.84;;;11.24;87.33
2685;BME280;1352;48.446;9.156;2022-11-15T01:49:49;95024.22;;;11.24;87.56
2685;BME280;1352;48.446;9.156;2022-11-15T01:52:19;95022.16;;;11.27;87.97
2685;BME280;1352;48.446;9.156;2022-11-15T01:54:49;95022.75;;;11.21;87.94
2685;BME280;1352;48.446;9.156;2022-11-15T01:57:17;95014.03;;;11.12;88.64
2685;BME280;1352;48.446;9.156;2022-11-15T01:59:45;95007.81;;;11.13;88.19
2685;BME280;1352;48.446;9.156;2022-11-15T02:02:14;95007.25;;;11.19;87.66
2685;BME280;1352;48.446;9.156;2022-11-15T02:04:42;95000.38;;;11.18;87.63
2685;BME280;1352;48.446;9.156;2022-11-15T02:07:12;95001.56;;;11.24;86.74
2685;BME280;1352;48.446;9.156;2022-11-15T02:09:40;95005.00;;;11.25;86.32
2685;BME280;1352;48.446;9.156;2022-11-15T02:12:08;95002.59;;;11.13;86.30
2685;BME280;1352;48.446;9.156;2022-11-15T02:14:37;94993.34;;;11.19;83.96
2685;BME280;1352;48.446;9.156;2022-11-15T02:17:18;94992.53;;;11.18;84.38
2685;BME280;1352;48.446;9.156;2022-11-15T02:20:19;94990.34;;;11.14;80.27
2685;BME280;1352;48.446;9.156;2022-11-15T02:23:04;94990.16;;;11.25;77.48
2685;BME280;1352;48.446;9.156;2022-11-15T02:25:46;94985.69;;;11.35;75.52
2685;BME280;1352;48.446;9.156;2022-11-15T02:28:38;94979.34;;;11.55;75.07
2685;BME280;1352;48.446;9.156;2022-11-15T02:31:12;94972.91;;;11.68;74.57
2685;BME280;1352;48.446;9.156;2022-11-15T02:33:52;94974.03;;;11.83;72.60
2685;BME280;1352;48.446;9.156;2022-11-15T02:36:33;94973.13;;;11.92;70.45
2685;BME280;1352;48.446;9.156;2022-11-15T02:39:06;94980.72;;;12.03;71.10
2685;BME280;1352;48.446;9.156;2022-11-15T02:41:40;94974.06;;;12.09;69.87
2685;BME280;1352;48.446;9.156;2022-11-15T02:44:15;94974.06;;;12.09;68.45
2685;BME280;1352;48.446;9.156;2022-11-15T02:46:48;94966.94;;;12.19;67.75
2685;BME280;1352;48.446;9.156;2022-11-15T02:49:36;94963.09;;;12.31;66.10
2685;BME280;1352;48.446;9.156;2022-11-15T02:52:04;94965.16;;;12.45;67.59
2685;BME280;1352;48.446;9.156;2022-11-15T02:54:34;94962.06;;;12.50;66.48
2685;BME280;1352;48.446;9.156;2022-11-15T02:57:04;94962.97;;;12.41;66.90
2685;BME280;1352;48.446;9.156;2022-11-15T02:59:47;94957.34;;;12.53;66.52
2685;BME280;1352;48.446;9.156;2022-11-15T03:02:36;94951.06;;;12.46;66.56
2685;BME280;1352;48.446;9.156;2022-11-15T03:05:16;94939.00;;;12.53;66.64
2685;BME280;1352;48.446;9.156;2022-11-15T03:07:53;94943.09;;;12.56;66.53
2685;BME280;1352;48.446;9.156;2022-11-15T03:10:26;94938.06;;;12.62;66.64
2685;BME280;1352;48.446;9.156;2022-11-15T03:13:06;94930.56;;;12.67;67.18
2685;BME280;1352;48.446;9.156;2022-11-15T03:15:43;94931.91;;;12.80;65.65
2685;BME280;1352;48.446;9.156;2022-11-15T03:18:18;94930.97;;;12.89;65.92
2685;BME280;1352;48.446;9.156;2022-11-15T03:20:46;94930.66;;;12.92;66.54
2685;BME280;1352;48.446;9.156;2022-11-15T03:23:15;94931.78;;;12.89;67.03
2685;BME280;1352;48.446;9.156;2022-11-15T03:25:46;94929.19;;;12.97;66.32
2685;BME280;1352;48.446;9.156;2022-11-15T03:28:20;94926.56;;;12.97;66.54
2685;BME280;1352;48.446;9.156;2022-11-15T03:30:49;94918.38;;;12.92;67.45
2685;BME280;1352;48.446;9.156;2022-11-15T03:33:21;94920.50;;;12.97;67.39
2685;BME280;1352;48.446;9.156;2022-11-15T03:35:48;94928.38;;;13.05;68.04
2685;BME280;1352;48.446;9.156;2022-11-15T03:38:20;94926.88;;;13.02;68.08
2685;BME280;1352;48.446;9.156;2022-11-15T03:40:53;94915.09;;;12.90;68.35
2685;BME280;1352;48.446;9.156;2022-11-15T03:43:32;94920.66;;;12.95;69.18
2685;BME280;1352;48.446;9.156;2022-11-15T03:46:02;94918.19;;;12.94;69.41
2685;BME280;1352;48.446;9.156;2022-11-15T03:48:35;94906.44;;;12.98;70.07
2685;BME280;1352;48.446;9.156;2022-11-15T03:51:04;94910.03;;;12.97;70.38
2685;BME280;1352;48.446;9.156;2022-11-15T03:53:31;94911.38;;;13.01;69.49
2685;BME280;1352;48.446;9.156;2022-11-15T03:56:02;94909.72;;;13.00;69.55
2685;BME280;1352;48.446;9.156;2022-11-15T03:58:28;94906.28;;;12.99;69.40
2685;BME280;1352;48.446;9.156;2022-11-15T04:00:55;94905.94;;;12.94;70.51
2685;BME280;1352;48.446;9.156;2022-11-15T04:03:22;94901.66;;;12.93;69.90
2685;BME280;1352;48.446;9.156;2022-11-15T04:05:54;94899.84;;;12.86;70.71
2685;BME280;1352;48.446;9.156;2022-11-15T04:08:21;94891.03;;;12.87;71.63
2685;BME280;1352;48.446;9.156;2022-11-15T04:10:48;94898.06;;;12.86;72.13
2685;BME280;1352;48.446;9.156;2022-11-15T04:13:15;94890.19;;;12.78;72.69
2685;BME280;1352;48.446;9.156;2022-11-15T04:15:42;94896.75;;;12.82;71.94
2685;BME280;1352;48.446;9.156;2022-11-15T04:18:09;94896.78;;;12.90;71.76
2685;BME280;1352;48.446;9.156;2022-11-15T04:20:36;94900.38;;;12.97;71.59
2685;BME280;1352;48.446;9.156;2022-11-15T04:23:23;94898.72;;;12.88;71.84
2685;BME280;1352;48.446;9.156;2022-11-15T04:26:14;94899.84;;;12.86;71.97
2685;BME280;1352;48.446;9.156;2022-11-15T04:28:43;94895.13;;;12.81;72.13
2685;BME280;1352;48.446;9.156;2022-11-15T04:31:23;94893.19;;;12.91;72.92
2685;BME280;1352;48.446;9.156;2022-11-15T04:33:51;94894.63;;;12.86;71.88
2685;BME280;1352;48.446;9.156;2022-11-15T04:36:18;94893.34;;;12.98;72.37
2685;BME280;1352;48.446;9.156;2022-11-15T04:39:04;94886.13;;;12.92;72.56
2685;BME280;1352;48.446;9.156;2022-11-15T04:41:32;94889.94;;;13.14;72.69
2685;BME280;1352;48.446;9.156;2022-11-15T04:43:59;94890.06;;;13.12;72.44
2685;BME280;1352;48.446;9.156;2022-11-15T04:46:27;94887.75;;;12.93;72.78
2685;BME280;1352;48.446;9.156;2022-11-15T04:48:54;94886.09;;;12.76;72.91
2685;BME280;1352;48.446;9.156;2022-11-15T04:51:21;94887.69;;;12.60;73.51
2685;BME280;1352;48.446;9.156;2022-11-15T04:53:48;94891.91;;;12.53;74.23
2685;BME280;1352;48.446;9.156;2022-11-15T04:56:17;94889.84;;;12.31;75.70
2685;BME280;1352;48.446;9.156;2022-11-15T04:58:44;94886.19;;;12.16;77.03
2685;BME280;1352;48.446;9.156;2022-11-15T05:01:13;94882.94;;;11.88;78.37
2685;BME280;1352;48.446;9.156;2022-11-15T05:03:40;94889.91;;;11.79;79.37
2685;BME280;1352;48.446;9.156;2022-11-15T05:06:25;94885.81;;;11.59;81.09
2685;BME280;1352;48.446;9.156;2022-11-15T05:08:52;94877.75;;;11.52;81.71
2685;BME280;1352;48.446;9.156;2022-11-15T05:11:21;94874.88;;;11.38;82.70
2685;BME280;1352;48.446;9.156;2022-11-15T05:13:48;94876.50;;;11.39;82.50
2685;BME280;1352;48.446;9.156;2022-11-15T05:16:15;94872.63;;;11.25;84.13
2685;BME280;1352;48.446;9.156;2022-11-15T05:18:42;94878.91;;;11.14;85.09
2685;BME280;1352;48.446;9.156;2022-11-15T05:21:12;94869.22;;;11.07;86.34
2685;BME280;1352;48.446;9.156;2022-11-15T05:23:40;94870.13;;;10.98;87.24
2685;BME280;1352;48.446;9.156;2022-11-15T05:26:08;94870.66;;;11.01;86.05
2685;BME280;1352;48.446;9.156;2022-11-15T05:28:37;94877.19;;;10.88;87.00
2685;BME280;1352;48.446;9.156;2022-11-15T05:31:07;94869.75;;;10.75;89.00
2685;BME280;1352;48.446;9.156;2022-11-15T05:33:35;94869.91;;;10.73;88.53
2685;BME280;1352;48.446;9.156;2022-11-15T05:36:06;94865.34;;;10.75;89.29
2685;BME280;1352;48.446;9.156;2022-11-15T05:38:34;94868.94;;;10.74;89.66
2685;BME280;1352;48.446;9.156;2022-11-15T05:41:02;94859.75;;;10.70;89.97
2685;BME280;1352;48.446;9.156;2022-11-15T05:43:30;94856.78;;;10.65;90.43
2685;BME280;1352;48.446;9.156;2022-11-15T05:46:03;94856.38;;;10.60;91.30
2685;BME280;1352;48.446;9.156;2022-11-15T05:48:31;94853.16;;;10.66;91.15
2685;BME280;1352;48.446;9.156;2022-11-15T05:50:59;94849.78;;;10.66;90.44
2685;BME280;1352;48.446;9.156;2022-11-15T05:53:30;94863.28;;;10.52;90.63
2685;BME280;1352;48.446;9.156;2022-11-15T05:55:57;94856.22;;;10.62;90.89
2685;BME280;1352;48.446;9.156;2022-11-15T05:58:24;94859.00;;;10.60;90.87
2685;BME280;1352;48.446;9.156;2022-11-15T06:00:51;94860.63;;;10.61;91.13
2685;BME280;1352;48.446;9.156;2022-11-15T06:03:20;94858.84;;;10.62;91.46
2685;BME280;1352;48.446;9.156;2022-11-15T06:05:47;94861.59;;;10.60;92.84
2685;BME280;1352;48.446;9.156;2022-11-15T06:08:14;94868.31;;;10.63;92.67
2685;BME280;1352;48.446;9.156;2022-11-15T06:10:41;94864.19;;;10.60;94.25
2685;BME280;1352;48.446;9.156;2022-11-15T06:13:08;94869.66;;;10.67;93.56
2685;BME280;1352;48.446;9.156;2022-11-15T06:15:35;94861.16;;;10.65;93.73
2685;BME280;1352;48.446;9.156;2022-11-15T06:18:02;94862.28;;;10.62;93.02
2685;BME280;1352;48.446;9.156;2022-11-15T06:20:31;94865.69;;;10.63;92.08
2685;BME280;1352;48.446;9.156;2022-11-15T06:22:58;94859.94;;;10.59;91.83
2685;BME280;1352;48.446;9.156;2022-11-15T06:25:26;94858.91;;;10.70;90.86
2685;BME280;1352;48.446;9.156;2022-11-15T06:27:54;94861.59;;;10.78;90.00
2685;BME280;1352;48.446;9.156;2022-11-15T06:30:25;94859.06;;;10.86;89.45
2685;BME280;1352;48.446;9.156;2022-11-15T06:32:59;94863.41;;;10.95;88.75
2685;BME280;1352;48.446;9.156;2022-11-15T06:35:27;94860.06;;;11.03;88.05
2685;BME280;1352;48.446;9.156;2022-11-15T06:37:55;94863.25;;;11.14;86.70
2685;BME280;1352;48.446;9.156;2022-11-15T06:40:23;94872.72;;;11.15;87.10
2685;BME280;1352;48.446;9.156;2022-11-15T06:42:50;94867.06;;;11.20;86.95
2685;BME280;1352;48.446;9.156;2022-11-15T06:45:17;94863.50;;;11.21;87.06
2685;BME280;1352;48.446;9.156;2022-11-15T06:47:44;94861.13;;;11.36;86.05
2685;BME280;1352;48.446;9.156;2022-11-15T06:50:12;94853.97;;;11.38;85.78
2685;BME280;1352;48.446;9.156;2022-11-15T06:52:42;94863.00;;;11.43;85.01
2685;BME280;1352;48.446;9.156;2022-11-15T06:55:11;94869.28;;;11.33;84.81
2685;BME280;1352;48.446;9.156;2022-11-15T06:57:46;94869.94;;;11.35;84.85
2685;BME280;1352;48.446;9.156;2022-11-15T07:00:14;94868.53;;;11.40;84.61
2685;BME280;1352;48.446;9.156;2022-11-15T07:02:42;94868.97;;;11.36;84.58
2685;BME280;1352;48.446;9.156;2022-11-15T07:05:09;94863.75;;;11.36;83.90
2685;BME280;1352;48.446;9.156;2022-11-15T07:07:36;94857.22;;;11.32;84.85
2685;BME280;1352;48.446;9.156;2022-11-15T07:10:04;94867.38;;;11.43;84.50
2685;BME280;1352;48.446;9.156;2022-11-15T07:12:33;94867.63;;;11.49;84.45
2685;BME280;1352;48.446;9.156;2022-11-15T07:15:00;94862.59;;;11.56;83.85
2685;BME280;1352;48.446;9.156;2022-11-15T07:17:27;94868.56;;;11.66;83.42
2685;BME280;1352;48.446;9.156;2022-11-15T07:19:54;94863.53;;;11.73;83.40
2685;BME280;1352;48.446;9.156;2022-11-15T07:22:21;94864.75;;;11.78;83.29
2685;BME280;1352;48.446;9.156;2022-11-15T07:24:48;94859.34;;;11.80;83.04
2685;BME280;1352;48.446;9.156;2022-11-15T07:27:15;94861.22;;;11.87;82.49
2685;BME280;1352;48.446;9.156;2022-11-15T07:29:44;94858.59;;;11.87;82.62
2685;BME280;1352;48.446;9.156;2022-11-15T07:32:11;94855.19;;;11.95;82.69
2685;BME280;1352;48.446;9.156;2022-11-15T07:34:38;94854.13;;;12.06;83.24
2685;BME280;1352;48.446;9.156;2022-11-15T07:37:05;94842.03;;;12.13;83.19
2685;BME280;1352;48.446;9.156;2022-11-15T07:39:33;94855.94;;;12.13;83.49
2685;BME280;1352;48.446;9.156;2022-11-15T07:42:00;94849.41;;;12.17;83.23
2685;BME280;1352;48.446;9.156;2022-11-15T07:44:46;94845.88;;;12.26;82.05
2685;BME280;1352;48.446;9.156;2022-11-15T07:47:13;94852.09;;;12.34;81.79
2685;BME280;1352;48.446;9.156;2022-11-15T07:49:40;94844.94;;;12.36;80.89
2685;BME280;1352;48.446;9.156;2022-11-15T07:52:07;94846.75;;;12.43;80.45
2685;BME280;1352;48.446;9.156;2022-11-15T07:54:34;94853.50;;;12.54;78.24
2685;BME280;1352;48.446;9.156;2022-11-15T07:57:01;94845.00;;;12.60;78.04
2685;BME280;1352;48.446;9.156;2022-11-15T07:59:28;94846.97;;;12.66;77.93
2685;BME280;1352;48.446;9.156;2022-11-15T08:01:57;94844.56;;;12.81;77.93
2685;BME280;1352;48.446;9.156;2022-11-15T08:04:24;94841.59;;;12.84;77.49
2685;BME280;1352;48.446;9.156;2022-11-15T08:06:51;94846.03;;;12.83;76.11
2685;BME280;1352;48.446;9.156;2022-11-15T08:09:18;94845.53;;;12.96;75.27
2685;BME280;1352;48.446;9.156;2022-11-15T08:11:45;94841.63;;;13.00;74.56
2685;BME280;1352;48.446;9.156;2022-11-15T08:14:12;94839.69;;;13.02;74.34
2685;BME280;1352;48.446;9.156;2022-11-15T08:16:39;94836.41;;;13.08;74.26
2685;BME280;1352;48.446;9.156;2022-11-15T08:19:08;94843.31;;;13.17;74.32
2685;BME280;1352;48.446;9.156;2022-11-15T08:21:35;94835.97;;;13.21;74.08
2685;BME280;1352;48.446;9.156;2022-11-15T08:24:03;94831.34;;;13.23;73.33
2685;BME280;1352;48.446;9.156;2022-11-15T08:26:30;94839.56;;;13.20;72.39
2685;BME280;1352;48.446;9.156;2022-11-15T08:28:57;94842.16;;;13.36;72.58
2685;BME280;1352;48.446;9.156;2022-11-15T08:31:24;94837.44;;;13.39;71.73
2685;BME280;1352;48.446;9.156;2022-11-15T08:33:51;94823.66;;;13.46;71.18
2685;BME280;1352;48.446;9.156;2022-11-15T08:36:19;94827.41;;;13.51;72.30
2685;BME280;1352;48.446;9.156;2022-11-15T08:38:46;94829.22;;;13.67;70.98
2685;BME280;1352;48.446;9.156;2022-11-15T08:41:18;94823.94;;;13.75;72.61
2685;BME280;1352;48.446;9.156;2022-11-15T08:43:48;94816.84;;;13.92;73.70
2685;BME280;1352;48.446;9.156;2022-11-15T08:46:15;94817.31;;;14.03;75.60
2685;BME280;1352;48.446;9.156;2022-11-15T08:48:43;94816.63;;;14.09;77.65
2685;BME280;1352;48.446;9.156;2022-11-15T08:51:10;94816.94;;;14.14;78.10
2685;BME280;1352;48.446;9.156;2022-11-15T08:53:39;94817.91;;;14.22;77.02
2685;BME280;1352;48.446;9.156;2022-11-15T08:56:07;94810.31;;;14.27;78.81
2685;BME280;1352;48.446;9.156;2022-11-15T08:58:34;94819.84;;;14.28;81.04
2685;BME280;1352;48.446;9.156;2022-11-15T09:01:02;94812.31;;;14.25;79.90
2685;BME280;1352;48.446;9.156;2022-11-15T09:03:29;94808.34;;;14.29;79.84
2685;BME280;1352;48.446;9.156;2022-11-15T09:05:58;94802.63;;;14.25;83.03
2685;BME280;1352;48.446;9.156;2022-11-15T09:08:25;94804.63;;;14.23;82.44
2685;BME280;1352;48.446;9.156;2022-11-15T09:10:54;94804.25;;;14.26;81.75
2685;BME280;1352;48.446;9.156;2022-11-15T09:13:21;94800.19;;;14.24;81.82
2685;BME280;1352;48.446;9.156;2022-11-15T09:15:48;94797.56;;;14.24;81.40
2685;BME280;1352;48.446;9.156;2022-11-15T09:18:16;94802.25;;;14.36;79.98
2685;BME280;1352;48.446;9.156;2022-11-15T09:20:43;94795.34;;;14.35;80.30
2685;BME280;1352;48.446;9.156;2022-11-15T09:23:10;94802.53;;;14.49;80.91
2685;BME280;1352;48.446;9.156;2022-11-15T09:25:37;94796.75;;;14.62;84.40
2685;BME280;1352;48.446;9.156;2022-11-15T09:28:07;94795.44;;;14.58;81.71
2685;BME280;1352;48.446;9.156;2022-11-15T09:30:35;94796.91;;;14.22;84.39
2685;BME280;1352;48.446;9.156;2022-11-15T09:33:06;94800.25;;;13.99;83.51
2685;BME280;1352;48.446;9.156;2022-11-15T09:35:34;94802.56;;;14.02;84.17
2685;BME280;1352;48.446;9.156;2022-11-15T09:38:01;94805.03;;;13.96;83.70
2685;BME280;1352;48.446;9.156;2022-11-15T09:40:30;94800.25;;;13.99;82.46
2685;BME280;1352;48.446;9.156;2022-11-15T09:43:28;94795.22;;;13.90;81.07
2685;BME280;1352;48.446;9.156;2022-11-15T09:46:08;94797.81;;;13.98;82.75
2685;BME280;1352;48.446;9.156;2022-11-15T09:48:48;94804.66;;;14.15;84.44
2685;BME280;1352;48.446;9.156;2022-11-15T09:51:27;94796.31;;;14.03;81.95
2685;BME280;1352;48.446;9.156;2022-11-15T09:54:08;94802.88;;;13.36;86.41
2685;BME280;1352;48.446;9.156;2022-11-15T09:56:41;94796.16;;;13.25;84.60
2685;BME280;1352;48.446;9.156;2022-11-15T09:59:27;94798.94;;;13.24;84.56
2685;BME280;1352;48.446;9.156;2022-11-15T10:02:14;94792.25;;;13.29;84.56
2685;BME280;1352;48.446;9.156;2022-11-15T10:04:45;94783.38;;;13.22;85.75
2685;BME280;1352;48.446;9.156;2022-11-15T10:07:15;94781.25;;;13.01;86.03
2685;BME280;1352;48.446;9.156;2022-11-15T10:09:49;94782.19;;;12.76;86.26
2685;BME280;1352;48.446;9.156;2022-11-15T10:12:18;94786.47;;;12.85;84.81
2685;BME280;1352;48.446;9.156;2022-11-15T10:14:49;94776.66;;;12.71;86.12
2685;BME280;1352;48.446;9.156;2022-11-15T10:17:27;94777.25;;;12.57;88.18
2685;BME280;1352;48.446;9.156;2022-11-15T10:20:10;94773.19;;;12.62;89.09
2685;BME280;1352;48.446;9.156;2022-11-15T10:22:43;94773.06;;;12.96;88.81
2685;BME280;1352;48.446;9.156;2022-11-15T10:25:21;94777.00;;;13.17;88.12
2685;BME280;1352;48.446;9.156;2022-11-15T10:27:54;94774.72;;;13.30;89.66
2685;BME280;1352;48.446;9.156;2022-11-15T10:30:30;94772.38;;;13.51;90.81
2685;BME280;1352;48.446;9.156;2022-11-15T10:33:08;94769.53;;;13.69;92.41
2685;BME280;1352;48.446;9.156;2022-11-15T10:35:37;94766.75;;;13.70;89.28
2685;BME280;1352;48.446;9.156;2022-11-15T10:38:06;94761.50;;;13.70;89.63
2685;BME280;1352;48.446;9.156;2022-11-15T10:40:34;94760.13;;;13.91;90.70
2685;BME280;1352;48.446;9.156;2022-11-15T10:43:12;94761.81;;;13.84;91.07
2685;BME280;1352;48.446;9.156;2022-11-15T10:45:41;94759.22;;;13.75;88.00
2685;BME280;1352;48.446;9.156;2022-11-15T10:48:26;94757.22;;;13.86;88.55
2685;BME280;1352;48.446;9.156;2022-11-15T10:50:54;94747.50;;;13.94;87.01
2685;BME280;1352;48.446;9.156;2022-11-15T10:53:28;94747.56;;;14.17;87.66
2685;BME280;1352;48.446;9.156;2022-11-15T10:56:01;94741.94;;;14.28;88.57
2685;BME280;1352;48.446;9.156;2022-11-15T10:58:35;94745.31;;;14.45;87.70
2685;BME280;1352;48.446;9.156;2022-11-15T11:01:16;94742.59;;;14.61;87.45
2685;BME280;1352;48.446;9.156;2022-11-15T11:03:45;94731.38;;;14.67;85.15
2685;BME280;1352;48.446;9.156;2022-11-15T11:06:13;94738.53;;;14.73;84.94
2685;BME280;1352;48.446;9.156;2022-11-15T11:08:55;94740.72;;;14.70;85.91
2685;BME280;1352;48.446;9.156;2022-11-15T11:11:22;94729.56;;;14.45;90.68
2685;BME280;1352;48.446;9.156;2022-11-15T11:13:50;94729.63;;;14.29;93.01
2685;BME280;1352;48.446;9.156;2022-11-15T11:16:42;94730.72;;;14.11;91.90
2685;BME280;1352;48.446;9.156;2022-11-15T11:19:30;94718.84;;;14.24;89.16
2685;BME280;1352;48.446;9.156;2022-11-15T11:22:05;94720.53;;;14.47;90.01
2685;BME280;1352;48.446;9.156;2022-11-15T11:24:41;94713.72;;;14.30;85.19
2685;BME280;1352;48.446;9.156;2022-11-15T11:27:26;94717.50;;;14.28;92.27
2685;BME280;1352;48.446;9.156;2022-11-15T11:30:03;94709.03;;;14.18;93.55
2685;BME280;1352;48.446;9.156;2022-11-15T11:32:58;94714.09;;;14.19;92.67
2685;BME280;1352;48.446;9.156;2022-11-15T11:35:34;94717.38;;;14.21;87.53
2685;BME280;1352;48.446;9.156;2022-11-15T11:38:18;94710.22;;;14.38;89.82
2685;BME280;1352;48.446;9.156;2022-11-15T11:40:57;94706.25;;;14.50;89.08
2685;BME280;1352;48.446;9.156;2022-11-15T11:43:32;94701.03;;;14.65;88.05
2685;BME280;1352;48.446;9.156;2022-11-15T11:46:32;94694.38;;;14.77;85.35
2685;BME280;1352;48.446;9.156;2022-11-15T11:49:09;94689.06;;;14.85;84.50
2685;BME280;1352;48.446;9.156;2022-11-15T11:51:40;94689.28;;;14.98;84.94
2685;BME280;1352;48.446;9.156;2022-11-15T11:54:17;94694.13;;;15.09;85.29
2685;BME280;1352;48.446;9.156;2022-11-15T11:56:46;94682.69;;;15.17;85.81
2685;BME280;1352;48.446;9.156;2022-11-15T11:59:21;94679.69;;;15.20;85.28
2685;BME280;1352;48.446;9.156;2022-11-15T12:01:50;94683.78;;;15.22;86.63
2685;BME280;1352;48.446;9.156;2022-11-15T12:04:23;94674.38;;;15.28;86.41
2685;BME280;1352;48.446;9.156;2022-11-15T12:06:55;94665.94;;;15.33;87.14
2685;BME280;1352;48.446;9.156;2022-11-15T12:09:29;94668.66;;;15.39;87.82
2685;BME280;1352;48.446;9.156;2022-11-15T12:12:05;94665.41;;;15.37;87.46
2685;BME280;1352;48.446;9.156;2022-11-15T12:14:40;94663.13;;;15.49;85.44
2685;BME280;1352;48.446;9.156;2022-11-15T12:17:10;94671.34;;;15.54;85.25
2685;BME280;1352;48.446;9.156;2022-11-15T12:19:39;94668.13;;;15.58;84.39
2685;BME280;1352;48.446;9.156;2022-11-15T12:22:13;94662.59;;;15.39;85.76
2685;BME280;1352;48.446;9.156;2022-11-15T12:24:47;94662.94;;;15.50;84.64
2685;BME280;1352;48.446;9.156;2022-11-15T12:27:23;94663.03;;;15.42;83.28
2685;BME280;1352;48.446;9.156;2022-11-15T12:29:57;94662.13;;;15.20;83.96
2685;BME280;1352;48.446;9.156;2022-11-15T12:32:28;94658.41;;;15.30;85.97
2685;BME280;1352;48.446;9.156;2022-11-15T12:34:58;94652.88;;;15.39;83.65
2685;BME280;1352;48.446;9.156;2022-11-15T12:37:52;94655.50;;;15.39;85.10
2685;BME280;1352;48.446;9.156;2022-11-15T12:40:34;94654.00;;;15.45;85.00
2685;BME280;1352;48.446;9.156;2022-11-15T12:46:14;94646.75;;;15.47;82.45
2685;BME280;1352;48.446;9.156;2022-11-15T12:48:55;94644.47;;;15.44;83.02
2685;BME280;1352;48.446;9.156;2022-11-15T12:57:50;94627.91;;;15.29;85.29
2685;BME280;1352;48.446;9.156;2022-11-15T13:00:41;94631.69;;;15.26;80.60
2685;BME280;1352;48.446;9.156;2022-11-15T13:03:25;94628.59;;;15.22;77.19
2685;BME280;1352;48.446;9.156;2022-11-15T13:05:59;94627.50;;;15.32;79.52
2685;BME280;1352;48.446;9.156;2022-11-15T13:08:46;94627.06;;;15.28;77.82
2685;BME280;1352;48.446;9.156;2022-11-15T13:11:42;94628.69;;;15.29;77.84
2685;BME280;1352;48.446;9.156;2022-11-15T13:14:45;94614.13;;;15.26;78.70
2685;BME280;1352;48.446;9.156;2022-11-15T13:17:40;94615.47;;;15.37;78.76
2685;BME280;1352;48.446;9.156;2022-11-15T13:20:19;94606.84;;;15.43;77.20
2685;BME280;1352;48.446;9.156;2022-11-15T13:22:48;94604.69;;;15.61;77.99
2685;BME280;1352;48.446;9.156;2022-11-15T13:25:45;94600.69;;;15.66;79.28
2685;BME280;1352;48.446;9.156;2022-11-15T13:28:21;94592.09;;;15.57;78.39
2685;BME280;1352;48.446;9.156;2022-11-15T13:30:51;94594.97;;;15.62;77.60
2685;BME280;1352;48.446;9.156;2022-11-15T13:33:23;94593.28;;;15.54;75.71
2685;BME280;1352;48.446;9.156;2022-11-15T13:35:53;94591.34;;;15.63;78.02
2685;BME280;1352;48.446;9.156;2022-11-15T13:38:26;94588.09;;;15.61;77.47
2685;BME280;1352;48.446;9.156;2022-11-15T13:40:56;94586.63;;;15.73;79.19
2685;BME280;1352;48.446;9.156;2022-11-15T13:43:30;94581.47;;;15.65;79.75
2685;BME280;1352;48.446;9.156;2022-11-15T13:46:06;94580.00;;;15.62;78.77
2685;BME280;1352;48.446;9.156;2022-11-15T13:48:33;94568.84;;;15.75;81.89
2685;BME280;1352;48.446;9.156;2022-11-15T13:51:01;94563.56;;;15.75;81.36
2685;BME280;1352;48.446;9.156;2022-11-15T13:53:31;94545.03;;;15.83;84.77
2685;BME280;1352;48.446;9.156;2022-11-15T13:56:01;94547.81;;;15.75;85.23